Time;durP1;ratioP1;P1;durP2;ratioP2;P2;SDS_P1;SDS_P2;PMS_P1;PMS_P2;Temp;Humidity;BMP_temperature;BMP_pressure;BME280_temperature;BME280_humidity;BME280_pressure;Samples;Min_cycle;Max_cycle;Signal;HPM_P1;HPM_P2
2022/04/21 00:02:18;;;;;;;11.48;10.27;;;7.80;99.90;;;;;;5033298;28;20041;-76
2022/04/21 00:04:43;;;;;;;11.18;10.07;;;7.80;99.90;;;;;;5032506;28;20079;-76
2022/04/21 00:07:09;;;;;;;12.07;10.88;;;7.70;99.90;;;;;;5033935;28;20061;-75
2022/04/21 00:09:34;;;;;;;11.88;10.23;;;7.60;99.90;;;;;;5034122;28;20034;-76
2022/04/21 00:12:00;;;;;;;12.15;10.45;;;7.60;99.90;;;;;;5032665;28;20506;-76
2022/04/21 00:14:25;;;;;;;11.05;9.93;;;7.60;99.90;;;;;;5034024;28;20383;-76
2022/04/21 00:16:51;;;;;;;11.27;10.18;;;7.60;99.90;;;;;;5038984;28;20410;-77
2022/04/21 00:19:16;;;;;;;10.45;9.45;;;7.50;99.90;;;;;;5052285;28;20108;-76
2022/04/21 00:24:26;;;;;;;11.00;9.90;;;7.60;99.90;;;;;;5054013;28;20036;-76
2022/04/21 00:26:51;;;;;;;10.95;9.80;;;7.60;99.90;;;;;;5053729;28;20021;-76
2022/04/21 00:29:17;;;;;;;11.48;10.38;;;7.70;99.90;;;;;;5052406;28;20033;-76
2022/04/21 00:31:43;;;;;;;11.45;10.02;;;7.80;99.90;;;;;;5053715;28;20068;-75
2022/04/21 00:34:09;;;;;;;12.38;10.80;;;7.70;99.90;;;;;;5053093;28;20024;-76
2022/04/21 00:36:35;;;;;;;12.05;10.63;;;7.70;99.90;;;;;;5053226;28;20017;-76
2022/04/21 00:39:01;;;;;;;11.50;10.32;;;7.80;99.90;;;;;;5053269;28;20021;-75
2022/04/21 00:41:26;;;;;;;12.05;10.50;;;7.80;99.90;;;;;;5053125;28;20025;-76
2022/04/21 00:43:52;;;;;;;11.32;10.20;;;7.90;99.90;;;;;;5052694;28;20033;-75
2022/04/21 00:46:19;;;;;;;11.15;10.05;;;7.90;99.90;;;;;;5053445;28;20466;-75
2022/04/21 00:48:45;;;;;;;11.15;10.10;;;7.90;99.90;;;;;;5048760;28;20025;-76
2022/04/21 00:51:11;;;;;;;11.85;10.75;;;7.60;99.90;;;;;;5032686;28;20029;-76
2022/04/21 00:53:38;;;;;;;10.50;9.50;;;7.60;99.90;;;;;;5047440;28;20394;-76
2022/04/21 00:56:04;;;;;;;10.80;9.80;;;7.60;99.90;;;;;;5049640;28;20028;-76
2022/04/21 00:58:30;;;;;;;11.50;10.40;;;7.70;99.90;;;;;;5032805;28;20383;-76
2022/04/21 01:00:56;;;;;;;11.63;10.52;;;7.70;99.90;;;;;;5031247;28;20017;-76
2022/04/21 01:03:22;;;;;;;12.23;10.23;;;7.50;99.90;;;;;;5032456;28;20017;-76
2022/04/21 01:05:49;;;;;;;11.57;10.38;;;7.40;99.90;;;;;;5032738;28;20104;-76
2022/04/21 01:08:14;;;;;;;11.82;10.60;;;7.50;99.90;;;;;;5031281;28;20017;-77
2022/04/21 01:10:42;;;;;;;11.27;10.18;;;7.40;99.90;;;;;;5031029;28;20487;-75
2022/04/21 01:13:09;;;;;;;11.82;10.60;;;7.20;99.90;;;;;;5032191;28;20023;-76
2022/04/21 01:15:40;;;;;;;11.80;10.60;;;7.10;99.90;;;;;;5031422;28;20025;-74
2022/04/21 01:18:06;;;;;;;12.23;11.13;;;7.10;99.90;;;;;;5032290;28;20095;-75
2022/04/21 01:20:33;;;;;;;11.40;10.30;;;7.10;99.90;;;;;;5030958;28;20017;-75
2022/04/21 01:22:58;;;;;;;12.25;11.02;;;7.10;99.90;;;;;;5032194;28;20021;-75
2022/04/21 01:25:24;;;;;;;12.50;11.25;;;7.10;99.90;;;;;;5032228;28;20168;-76
2022/04/21 01:27:57;;;;;;;12.48;10.63;;;7.10;99.90;;;;;;5031127;28;20033;-76
2022/04/21 01:30:23;;;;;;;11.77;10.57;;;7.00;99.90;;;;;;5032451;28;20505;-76
2022/04/21 01:32:49;;;;;;;12.30;11.05;;;7.10;99.90;;;;;;5032190;28;20038;-76
2022/04/21 01:35:15;;;;;;;11.70;10.57;;;7.10;99.90;;;;;;5030792;28;20273;-76
2022/04/21 01:43:11;;;;;;;12.43;11.18;;;7.30;99.90;;;;;;5032155;28;20036;-75
2022/04/21 01:45:37;;;;;;;12.32;11.13;;;7.20;99.90;;;;;;5031982;28;20025;-75
2022/04/21 01:48:03;;;;;;;12.70;11.50;;;7.20;99.90;;;;;;5032110;28;20030;-76
2022/04/21 01:50:29;;;;;;;12.57;11.27;;;7.20;99.90;;;;;;5031722;28;20041;-76
2022/04/21 01:52:58;;;;;;;12.18;11.02;;;7.20;99.90;;;;;;5031879;28;20026;-76
2022/04/21 01:55:24;;;;;;;12.40;11.20;;;7.20;99.90;;;;;;5031535;28;20120;-76
2022/04/21 01:57:49;;;;;;;13.07;11.80;;;7.20;99.90;;;;;;5030364;28;20160;-76
2022/04/21 02:00:16;;;;;;;11.90;10.82;;;7.10;99.90;;;;;;5031420;28;20124;-74
2022/04/21 02:02:42;;;;;;;13.13;11.85;;;7.10;99.90;;;;;;5031666;28;20106;-76
2022/04/21 02:05:08;;;;;;;11.77;10.68;;;7.00;99.90;;;;;;5030310;28;20068;-75
2022/04/21 02:07:33;;;;;;;13.48;12.10;;;6.80;99.90;;;;;;5031706;28;20025;-76
2022/04/21 02:09:59;;;;;;;13.35;11.95;;;6.80;99.90;;;;;;5031487;28;20108;-74
2022/04/21 02:12:28;;;;;;;14.00;11.85;;;6.60;99.90;;;;;;5031484;28;20057;-76
2022/04/21 02:14:54;;;;;;;13.88;12.27;;;6.50;99.90;;;;;;5030221;28;20072;-77
2022/04/21 02:17:19;;;;;;;12.80;11.48;;;6.50;99.90;;;;;;5042126;28;20017;-76
2022/04/21 02:19:46;;;;;;;13.27;10.93;;;6.30;99.90;;;;;;5051447;28;20025;-76
2022/04/21 02:22:12;;;;;;;13.38;11.98;;;6.40;99.90;;;;;;5049987;28;20074;-76
2022/04/21 02:24:37;;;;;;;12.88;11.65;;;6.40;99.90;;;;;;5052096;28;20029;-76
2022/04/21 02:27:03;;;;;;;13.50;12.20;;;6.40;99.90;;;;;;5055548;28;20059;-75
2022/04/21 02:29:29;;;;;;;14.02;12.30;;;6.40;99.90;;;;;;5040966;28;20033;-76
2022/04/21 02:31:54;;;;;;;13.38;12.00;;;6.50;99.90;;;;;;5053986;28;20029;-75
2022/04/21 02:34:20;;;;;;;12.80;11.60;;;6.40;99.90;;;;;;5055239;28;20025;-75
2022/04/21 02:36:45;;;;;;;14.25;12.95;;;6.40;99.90;;;;;;5054135;28;20475;-75
2022/04/21 02:39:11;;;;;;;12.50;11.30;;;6.50;99.90;;;;;;5053872;28;20108;-76
2022/04/21 02:41:36;;;;;;;15.40;13.55;;;6.50;99.90;;;;;;5053798;28;20094;-75
2022/04/21 02:44:02;;;;;;;16.20;14.63;;;6.10;99.90;;;;;;5055055;28;20032;-76
2022/04/21 02:46:29;;;;;;;15.93;13.82;;;5.80;99.90;;;;;;5054000;28;20025;-76
2022/04/21 02:49:00;;;;;;;15.70;14.02;;;6.00;99.90;;;;;;5050978;28;20028;-75
2022/04/21 02:51:27;;;;;;;14.40;12.90;;;6.20;99.90;;;;;;5034973;28;20028;-76
2022/04/21 02:59:21;;;;;;;13.90;12.50;;;6.50;99.90;;;;;;5035357;28;20028;-76
2022/04/21 03:01:47;;;;;;;13.88;12.48;;;6.70;99.90;;;;;;5033444;28;20411;-76
2022/04/21 03:04:13;;;;;;;13.30;12.10;;;6.70;99.90;;;;;;5034774;28;20049;-75
2022/04/21 03:06:38;;;;;;;13.52;11.90;;;6.70;99.90;;;;;;5034849;28;20029;-75
2022/04/21 03:09:04;;;;;;;14.10;12.13;;;6.90;99.90;;;;;;5034860;28;20030;-74
2022/04/21 03:11:29;;;;;;;13.15;11.82;;;6.80;99.90;;;;;;5034513;28;20116;-76
2022/04/21 03:13:55;;;;;;;12.68;11.48;;;6.80;99.90;;;;;;5033395;28;20037;-75
2022/04/21 03:16:20;;;;;;;12.75;11.55;;;6.90;99.90;;;;;;5034699;28;20026;-75
2022/04/21 03:18:46;;;;;;;13.57;12.27;;;6.80;99.90;;;;;;5034557;28;20030;-75
2022/04/21 03:26:39;;;;;;;15.93;14.07;;;6.30;99.90;;;;;;5054543;28;20031;-75
2022/04/21 03:29:05;;;;;;;16.00;14.45;;;5.80;99.90;;;;;;5054260;28;20032;-75
2022/04/21 03:31:30;;;;;;;15.38;13.88;;;5.80;99.90;;;;;;5052922;28;20021;-76
2022/04/21 03:33:56;;;;;;;14.98;13.55;;;5.80;99.90;;;;;;5039668;28;20399;-76
2022/04/21 03:36:22;;;;;;;14.90;13.50;;;6.00;99.90;;;;;;5054298;28;20032;-75
2022/04/21 03:38:47;;;;;;;14.77;13.38;;;6.10;99.90;;;;;;5054272;28;20021;-76
2022/04/21 03:41:13;;;;;;;14.98;13.55;;;6.20;99.90;;;;;;5052803;28;20025;-75
2022/04/21 03:43:39;;;;;;;15.23;13.82;;;6.20;99.90;;;;;;5040775;28;20053;-76
2022/04/21 03:46:04;;;;;;;15.23;13.73;;;6.10;99.90;;;;;;5052947;28;20021;-75
2022/04/21 03:48:30;;;;;;;14.52;13.00;;;6.10;99.90;;;;;;5053514;28;20413;-75
2022/04/21 03:50:56;;;;;;;13.52;12.02;;;6.40;99.90;;;;;;5032601;28;20022;-76
2022/04/21 03:53:22;;;;;;;14.13;12.73;;;6.50;99.90;;;;;;5033429;28;20569;-74
2022/04/21 03:55:47;;;;;;;13.25;11.95;;;6.60;99.90;;;;;;5053900;28;20028;-76
2022/04/21 03:58:13;;;;;;;13.88;12.60;;;6.60;99.90;;;;;;5032810;28;20415;-76
2022/04/21 04:00:39;;;;;;;14.25;12.85;;;6.60;99.90;;;;;;5033585;28;20029;-74
2022/04/21 04:03:04;;;;;;;15.18;12.27;;;6.50;99.90;;;;;;5033730;28;20049;-74
2022/04/21 04:05:30;;;;;;;14.00;12.60;;;6.80;99.90;;;;;;5033811;28;20075;-76
2022/04/21 04:10:52;;;;;;;18.70;13.90;;;6.90;99.90;;;;;;5033387;28;20035;-75
2022/04/21 04:13:18;;;;;;;14.30;12.80;;;6.90;99.90;;;;;;5032577;28;20450;-75
2022/04/21 04:15:48;;;;;;;11.77;10.50;;;7.00;99.90;;;;;;5033549;28;20108;-75
2022/04/21 04:18:14;;;;;;;13.25;11.43;;;7.00;99.90;;;;;;5032149;28;20021;-75
2022/04/21 04:20:39;;;;;;;13.35;12.05;;;7.00;99.90;;;;;;5033305;28;20021;-74
2022/04/21 04:23:05;;;;;;;13.57;12.18;;;7.00;99.90;;;;;;5033378;28;20030;-74
2022/04/21 04:25:31;;;;;;;13.80;12.40;;;7.00;99.90;;;;;;5032132;28;20124;-76
2022/04/21 04:27:57;;;;;;;14.40;13.00;;;6.90;99.90;;;;;;5033633;28;20041;-76
2022/04/21 04:30:22;;;;;;;20.20;18.20;;;7.00;99.90;;;;;;5045131;28;20044;-74
2022/04/21 04:32:48;;;;;;;15.85;14.30;;;6.90;99.90;;;;;;5052042;28;20487;-74
2022/04/21 04:35:13;;;;;;;14.98;13.45;;;6.90;99.90;;;;;;5051773;28;20021;-77
2022/04/21 04:37:39;;;;;;;14.80;13.35;;;6.90;99.90;;;;;;5053022;28;20022;-76
2022/04/21 04:40:05;;;;;;;15.32;14.00;;;6.90;99.90;;;;;;5041125;28;20056;-76
2022/04/21 04:42:31;;;;;;;14.50;13.20;;;7.00;99.90;;;;;;5050134;28;20509;-75
2022/04/21 04:47:41;;;;;;;14.05;12.75;;;7.20;99.90;;;;;;5052451;28;20032;-76
2022/04/21 04:50:07;;;;;;;16.25;14.55;;;7.10;99.90;;;;;;5037529;28;20029;-76
2022/04/21 04:52:33;;;;;;;17.20;14.20;;;7.00;99.90;;;;;;5032527;28;20116;-76
2022/04/21 04:54:59;;;;;;;15.35;13.80;;;7.10;99.90;;;;;;5031411;28;20115;-76
2022/04/21 04:57:25;;;;;;;16.33;14.10;;;6.90;99.90;;;;;;5031495;28;20432;-76
2022/04/21 04:59:50;;;;;;;17.58;14.73;;;6.70;99.90;;;;;;5032736;28;20034;-75
2022/04/21 05:02:20;;;;;;;15.32;13.70;;;6.60;99.90;;;;;;5032536;28;20030;-76
2022/04/21 05:04:48;;;;;;;16.00;14.38;;;6.70;99.90;;;;;;5031179;28;20032;-74
2022/04/21 05:07:14;;;;;;;16.38;14.70;;;6.90;99.90;;;;;;5032539;28;20407;-74
2022/04/21 05:09:40;;;;;;;15.60;14.00;;;7.10;99.90;;;;;;5032552;28;20030;-74
2022/04/21 05:12:06;;;;;;;15.38;13.77;;;7.10;99.90;;;;;;5032399;28;20094;-75
2022/04/21 05:14:32;;;;;;;15.55;14.00;;;7.20;99.90;;;;;;5030986;28;20025;-75
2022/04/21 05:16:58;;;;;;;15.38;13.77;;;7.30;99.90;;;;;;5031198;28;20108;-76
2022/04/21 05:19:24;;;;;;;15.60;13.48;;;7.30;99.90;;;;;;5031062;28;20171;-76
2022/04/21 05:21:50;;;;;;;17.88;16.17;;;7.30;99.90;;;;;;5032140;28;20122;-75
2022/04/21 05:24:16;;;;;;;17.00;15.32;;;7.40;99.90;;;;;;5032194;28;20029;-76
2022/04/21 05:26:43;;;;;;;16.00;14.52;;;7.60;99.90;;;;;;5038404;28;20032;-76
2022/04/21 05:31:55;;;;;;;15.65;14.15;;;7.60;99.90;;;;;;5052207;28;20032;-76
2022/04/21 05:34:22;;;;;;;15.88;14.27;;;7.70;99.90;;;;;;5051782;28;20024;-76
2022/04/21 05:36:48;;;;;;;16.27;14.57;;;7.60;99.90;;;;;;5051989;28;20025;-76
2022/04/21 05:39:14;;;;;;;16.00;14.52;;;7.80;99.90;;;;;;5046740;28;20044;-76
2022/04/21 05:41:40;;;;;;;17.48;15.65;;;7.90;99.90;;;;;;5042291;28;20467;-74
2022/04/21 05:44:06;;;;;;;17.52;15.90;;;7.70;99.90;;;;;;5050372;28;20037;-76
2022/04/21 05:46:32;;;;;;;18.35;16.63;;;7.80;99.90;;;;;;5050400;28;20031;-75
2022/04/21 05:48:58;;;;;;;17.17;15.48;;;7.40;99.90;;;;;;5047469;28;20029;-76
2022/04/21 05:51:24;;;;;;;17.42;15.73;;;7.40;99.90;;;;;;5031600;28;20034;-78
2022/04/21 05:53:50;;;;;;;17.33;15.57;;;7.40;99.90;;;;;;5030312;28;20034;-76
2022/04/21 05:56:16;;;;;;;15.65;14.13;;;7.90;99.90;;;;;;5031736;28;20020;-78
2022/04/21 05:58:42;;;;;;;16.55;14.40;;;7.80;99.90;;;;;;5029507;28;20112;-76
2022/04/21 06:01:10;;;;;;;14.23;12.80;;;7.80;99.90;;;;;;5030149;28;20084;-76
2022/04/21 06:03:37;;;;;;;15.50;13.82;;;7.90;99.90;;;;;;5031501;28;20029;-76
2022/04/21 06:06:04;;;;;;;14.55;13.15;;;7.70;99.90;;;;;;5030690;28;20056;-76
2022/04/21 06:08:29;;;;;;;15.45;13.95;;;7.70;99.90;;;;;;5031676;28;20025;-76
2022/04/21 06:10:58;;;;;;;14.73;12.77;;;7.80;99.90;;;;;;5030092;28;20395;-76
2022/04/21 06:13:25;;;;;;;16.30;14.70;;;8.00;99.90;;;;;;5030160;28;20022;-76
2022/04/21 06:15:51;;;;;;;15.23;13.75;;;8.10;99.90;;;;;;5031359;28;20030;-76
2022/04/21 06:18:17;;;;;;;15.27;13.15;;;8.00;99.90;;;;;;5031300;28;20029;-76
2022/04/21 06:20:42;;;;;;;18.40;16.00;;;8.10;99.90;;;;;;5031233;28;20412;-76
2022/04/21 06:23:08;;;;;;;17.73;15.95;;;7.90;99.90;;;;;;5031261;28;20196;-76
2022/04/21 06:25:34;;;;;;;17.63;15.82;;;7.80;99.90;;;;;;5031437;28;20480;-76
2022/04/21 06:27:59;;;;;;;17.70;15.90;;;7.80;99.90;;;;;;5031409;28;20033;-76
2022/04/21 06:30:25;;;;;;;17.67;16.05;;;7.90;99.90;;;;;;5029776;28;20026;-76
2022/04/21 06:32:51;;;;;;;18.27;16.50;;;7.80;99.90;;;;;;5049462;28;20047;-75
2022/04/21 06:35:17;;;;;;;17.85;15.95;;;8.00;99.90;;;;;;5051207;28;20071;-75
2022/04/21 06:37:43;;;;;;;17.50;15.77;;;8.10;99.90;;;;;;5051614;28;20018;-76
2022/04/21 06:40:09;;;;;;;16.55;14.50;;;8.20;99.90;;;;;;5040070;28;20506;-76
2022/04/21 06:42:37;;;;;;;18.48;14.23;;;8.30;99.90;;;;;;5048984;28;20116;-76
2022/04/21 06:48:07;;;;;;;17.27;15.48;;;8.70;99.90;;;;;;5051562;28;20516;-75
2022/04/21 06:50:36;;;;;;;14.10;12.80;;;8.80;99.90;;;;;;5032055;28;20037;-75
2022/04/21 06:53:09;;;;;;;14.18;11.98;;;9.00;99.90;;;;;;5029990;28;20025;-75
2022/04/21 06:55:35;;;;;;;11.32;10.23;;;9.00;99.90;;;;;;5029736;28;20542;-75
2022/04/21 06:58:01;;;;;;;12.13;9.77;;;9.00;99.90;;;;;;5031192;28;20097;-76
2022/04/21 07:00:29;;;;;;;11.82;10.63;;;9.10;99.90;;;;;;5031010;28;20017;-76
2022/04/21 07:02:57;;;;;;;11.70;10.50;;;9.20;99.90;;;;;;5029760;28;20028;-76
2022/04/21 07:05:23;;;;;;;10.00;8.48;;;9.10;99.90;;;;;;5031134;28;20030;-75
2022/04/21 07:07:49;;;;;;;11.50;8.43;;;9.30;99.90;;;;;;5029702;28;20116;-76
2022/04/21 07:10:16;;;;;;;9.13;8.30;;;9.30;99.90;;;;;;5032493;28;20034;-77
2022/04/21 07:12:42;;;;;;;9.60;8.57;;;9.40;99.90;;;;;;5034750;28;20022;-76
2022/04/21 07:15:09;;;;;;;11.30;8.88;;;9.40;99.90;;;;;;5033974;28;20048;-76
2022/04/21 07:17:36;;;;;;;11.68;8.40;;;9.40;99.90;;;;;;5035043;28;20037;-75
2022/04/21 07:20:02;;;;;;;8.63;7.70;;;9.60;99.90;;;;;;5036868;28;20017;-75
2022/04/21 07:22:29;;;;;;;8.68;7.25;;;9.60;99.90;;;;;;5034990;28;20032;-75
2022/04/21 07:25:00;;;;;;;10.85;8.20;;;9.90;99.90;;;;;;5035633;28;20087;-76
2022/04/21 07:27:26;;;;;;;10.23;7.10;;;10.00;99.90;;;;;;5035748;28;20021;-75
2022/04/21 07:29:51;;;;;;;7.75;6.32;;;10.10;99.90;;;;;;5035705;28;20594;-76
2022/04/21 07:32:17;;;;;;;10.00;6.38;;;10.20;99.90;;;;;;5046998;28;20025;-76
2022/04/21 07:34:43;;;;;;;9.88;6.28;;;10.50;99.90;;;;;;5053178;28;20094;-76
2022/04/21 07:37:09;;;;;;;7.68;6.50;;;10.60;99.90;;;;;;5054280;28;20483;-76
2022/04/21 07:39:36;;;;;;;7.57;6.43;;;10.60;99.90;;;;;;5054406;28;20048;-74
2022/04/21 07:42:03;;;;;;;8.30;7.20;;;10.60;99.90;;;;;;5053059;28;20439;-75
2022/04/21 07:44:29;;;;;;;7.82;6.28;;;10.60;99.90;;;;;;5054098;28;20438;-76
2022/04/21 07:46:55;;;;;;;7.00;5.97;;;10.80;99.90;;;;;;5053967;28;20386;-75
2022/04/21 07:54:49;;;;;;;7.32;6.05;;;11.00;99.90;;;;;;5046533;28;20508;-76
2022/04/21 07:57:15;;;;;;;8.75;7.05;;;11.10;99.90;;;;;;5033616;28;20026;-77
2022/04/21 07:59:41;;;;;;;8.15;6.10;;;11.10;99.90;;;;;;5034052;28;20022;-75
2022/04/21 08:02:08;;;;;;;9.43;6.45;;;11.40;99.90;;;;;;5052593;28;20055;-75
2022/04/21 08:04:34;;;;;;;7.72;6.20;;;11.10;99.90;;;;;;5053648;28;20028;-74
2022/04/21 08:07:00;;;;;;;9.77;6.45;;;11.20;99.90;;;;;;5046545;28;20495;-76
2022/04/21 08:09:26;;;;;;;8.20;6.97;;;11.10;99.90;;;;;;5032421;28;20036;-76
2022/04/21 08:11:51;;;;;;;9.35;7.70;;;11.30;99.90;;;;;;5032108;28;20029;-77
2022/04/21 08:14:17;;;;;;;8.10;7.05;;;11.20;99.90;;;;;;5033590;28;20025;-76
2022/04/21 08:16:43;;;;;;;8.90;7.38;;;11.60;99.90;;;;;;5039155;28;20032;-76
2022/04/21 08:19:10;;;;;;;10.18;7.45;;;11.50;99.90;;;;;;5053532;28;20025;-76
2022/04/21 08:21:37;;;;;;;8.40;6.88;;;11.30;99.90;;;;;;5033241;28;20200;-76
2022/04/21 08:34:59;;;;;;;10.00;7.85;;;11.50;99.90;;;;;;5033209;28;20051;-76
2022/04/21 08:37:25;;;;;;;9.35;7.50;;;11.40;99.90;;;;;;5033053;28;20480;-76
2022/04/21 08:39:50;;;;;;;10.05;7.50;;;11.30;99.90;;;;;;5033179;28;20573;-76
2022/04/21 08:42:16;;;;;;;12.43;9.48;;;11.80;99.90;;;;;;5046490;28;20387;-76
2022/04/21 08:44:44;;;;;;;9.23;8.32;;;12.10;99.90;;;;;;5040306;28;20040;-75
2022/04/21 08:47:12;;;;;;;10.50;7.97;;;12.20;99.90;;;;;;5038200;28;20514;-75
2022/04/21 08:49:39;;;;;;;9.25;8.07;;;12.20;99.90;;;;;;5041636;28;20026;-75
2022/04/21 08:52:06;;;;;;;9.88;8.88;;;12.10;99.90;;;;;;5031237;28;20026;-76
2022/04/21 08:54:32;;;;;;;11.98;9.13;;;12.00;99.90;;;;;;5032753;28;20034;-75
2022/04/21 08:56:59;;;;;;;10.65;9.55;;;12.00;99.90;;;;;;5032732;28;20383;-75
2022/04/21 08:59:25;;;;;;;11.00;9.23;;;11.50;99.90;;;;;;5032789;28;20068;-75
2022/04/21 09:01:50;;;;;;;10.13;9.13;;;11.30;99.90;;;;;;5032426;28;20018;-74
2022/04/21 09:04:16;;;;;;;12.73;9.88;;;11.60;99.90;;;;;;5032671;28;20033;-76
2022/04/21 09:06:42;;;;;;;10.95;8.45;;;11.50;99.90;;;;;;5033015;28;20040;-75
2022/04/21 09:09:21;;;;;;;11.00;8.15;;;12.00;99.90;;;;;;5032710;28;20113;-76
2022/04/21 09:11:53;;;;;;;12.68;10.18;;;11.80;99.90;;;;;;5051064;28;20051;-76
2022/04/21 09:14:20;;;;;;;10.73;9.63;;;12.00;99.90;;;;;;5052268;28;20053;-76
2022/04/21 09:16:47;;;;;;;14.85;10.32;;;12.30;99.90;;;;;;5051183;28;20017;-76
2022/04/21 09:19:13;;;;;;;11.95;10.27;;;12.30;99.90;;;;;;5052125;28;20032;-76
2022/04/21 09:21:40;;;;;;;10.85;9.70;;;12.60;99.90;;;;;;5050810;28;20021;-76
2022/04/21 09:24:26;;;;;;;11.10;9.93;;;12.70;99.90;;;;;;5052580;28;20013;-76
2022/04/21 09:26:53;;;;;;;12.27;9.57;;;12.80;99.90;;;;;;5052224;28;20021;-75
2022/04/21 09:29:30;;;;;;;11.30;9.95;;;12.80;99.90;;;;;;5052061;28;20021;-75
2022/04/21 09:32:04;;;;;;;12.05;9.75;;;13.00;99.90;;;;;;5050625;28;20437;-75
2022/04/21 09:34:30;;;;;;;11.40;9.65;;;12.90;99.90;;;;;;5050448;28;20124;-76
2022/04/21 09:36:57;;;;;;;11.65;10.45;;;12.80;99.90;;;;;;5052040;28;20049;-76
2022/04/21 09:39:23;;;;;;;10.95;9.82;;;12.90;99.90;;;;;;5051955;28;20017;-76
2022/04/21 09:41:53;;;;;;;11.93;10.55;;;12.80;99.90;;;;;;5051782;28;20025;-76
2022/04/21 09:47:07;;;;;;;13.70;9.57;;;13.00;99.90;;;;;;5052126;28;20465;-76
2022/04/21 09:49:34;;;;;;;12.63;10.10;;;13.20;99.90;;;;;;5042676;28;20032;-75
2022/04/21 09:52:00;;;;;;;10.95;8.68;;;13.10;99.90;;;;;;5031594;28;20467;-76
2022/04/21 09:54:28;;;;;;;9.38;8.38;;;13.20;99.90;;;;;;5031598;28;20030;-75
2022/04/21 09:56:56;;;;;;;10.15;9.02;;;13.10;99.90;;;;;;5031726;28;20034;-76
2022/04/21 09:59:22;;;;;;;12.80;10.18;;;13.10;99.90;;;;;;5031768;28;20017;-76
2022/04/21 10:01:50;;;;;;;11.23;9.88;;;12.90;99.90;;;;;;5031455;28;20532;-76
2022/04/21 10:04:19;;;;;;;10.93;9.73;;;13.00;99.90;;;;;;5030460;28;20025;-76
2022/04/21 10:06:45;;;;;;;12.38;9.45;;;13.30;99.90;;;;;;5030352;28;20021;-75
2022/04/21 10:09:12;;;;;;;9.95;8.38;;;13.60;99.90;;;;;;5031497;28;20102;-75
2022/04/21 10:11:41;;;;;;;10.35;9.27;;;13.50;99.90;;;;;;5035674;28;20079;-75
2022/04/21 10:14:12;;;;;;;10.75;9.30;;;13.40;99.90;;;;;;5039903;28;20437;-76
2022/04/21 10:16:38;;;;;;;9.93;8.93;;;13.70;99.90;;;;;;5050281;28;20502;-75
2022/04/21 10:19:04;;;;;;;10.40;9.32;;;13.60;99.90;;;;;;5051454;28;20036;-76
2022/04/21 10:21:53;;;;;;;9.55;7.40;;;13.90;99.90;;;;;;5049686;28;20028;-76
2022/04/21 10:24:24;;;;;;;10.30;8.70;;;14.00;99.90;;;;;;5051268;28;20036;-76
2022/04/21 10:26:49;;;;;;;10.75;8.55;;;13.70;99.90;;;;;;5050019;28;20025;-77
2022/04/21 10:29:26;;;;;;;10.18;8.60;;;13.40;99.90;;;;;;5051246;28;20111;-77
2022/04/21 10:32:05;;;;;;;9.68;8.13;;;13.40;99.90;;;;;;5049743;28;20056;-75
2022/04/21 10:34:45;;;;;;;9.50;8.60;;;13.30;99.90;;;;;;5051123;28;20048;-76
2022/04/21 10:37:19;;;;;;;9.35;8.05;;;13.30;99.90;;;;;;5050033;28;20017;-76
2022/04/21 10:40:03;;;;;;;10.05;8.07;;;13.60;99.90;;;;;;5049941;28;20418;-76
2022/04/21 10:42:28;;;;;;;10.50;8.45;;;14.10;99.90;;;;;;5050689;28;20044;-76
2022/04/21 10:44:55;;;;;;;8.55;7.65;;;14.30;99.90;;;;;;5052414;28;20462;-76
2022/04/21 10:47:31;;;;;;;7.53;6.82;;;14.20;99.90;;;;;;5037746;28;20105;-76
2022/04/21 10:49:59;;;;;;;9.32;8.52;;;14.70;99.90;;;;;;5035221;28;20079;-76
2022/04/21 10:57:55;;;;;;;10.48;8.50;;;13.30;99.90;;;;;;5035059;28;20033;-77
2022/04/21 11:00:29;;;;;;;9.30;7.68;;;13.60;99.90;;;;;;5034804;28;20022;-76
2022/04/21 11:03:01;;;;;;;8.27;7.47;;;13.70;99.90;;;;;;5034947;28;20026;-76
2022/04/21 11:05:33;;;;;;;7.93;7.13;;;14.20;99.90;;;;;;5033522;28;20029;-76
2022/04/21 11:08:04;;;;;;;11.27;8.05;;;14.50;99.90;;;;;;5034789;28;20022;-76
2022/04/21 11:10:38;;;;;;;9.15;7.20;;;14.50;99.90;;;;;;5034675;28;20025;-76
2022/04/21 11:13:18;;;;;;;8.43;7.63;;;14.30;99.90;;;;;;5034575;28;20041;-78
2022/04/21 11:15:50;;;;;;;9.50;8.60;;;15.00;99.90;;;;;;5034644;28;20060;-76
2022/04/21 11:18:21;;;;;;;11.40;8.98;;;15.10;99.90;;;;;;5033446;28;20018;-76
2022/04/21 11:20:48;;;;;;;9.88;8.32;;;14.70;99.90;;;;;;5034623;28;20426;-77
2022/04/21 11:23:24;;;;;;;9.95;8.52;;;15.10;99.90;;;;;;5033290;28;20052;-76
2022/04/21 11:25:50;;;;;;;;;;;15.30;99.90;;;;;;5034912;28;20029;-76
2022/04/21 11:28:25;;;;;;;8.27;7.47;;;15.40;99.90;;;;;;5034387;28;19905;-76
2022/04/21 11:30:58;;;;;;;8.90;8.00;;;16.10;99.90;;;;;;5034307;28;20053;-76
2022/04/21 11:33:24;;;;;;;8.75;7.80;;;15.90;99.90;;;;;;5034469;28;20029;-76
2022/04/21 11:35:49;;;;;;;9.70;7.65;;;16.00;99.90;;;;;;5034309;28;20080;-76
2022/04/21 11:38:15;;;;;;;11.45;7.57;;;15.50;99.90;;;;;;5033140;28;20022;-76
2022/04/21 11:40:41;;;;;;;10.10;7.10;;;15.60;99.90;;;;;;5034162;28;20024;-76
2022/04/21 11:43:17;;;;;;;7.55;6.85;;;16.00;99.90;;;;;;5034294;28;20022;-76
2022/04/21 11:45:55;;;;;;;6.70;6.10;;;16.30;99.90;;;;;;5033053;28;20030;-76
2022/04/21 11:48:20;;;;;;;7.07;6.38;;;16.20;99.90;;;;;;5034381;28;20034;-76
2022/04/21 11:50:47;;;;;;;8.00;6.68;;;16.10;99.90;;;;;;5033708;28;20163;-76
2022/04/21 11:53:18;;;;;;;7.78;6.88;;;16.10;99.90;;;;;;5034025;28;20025;-76
2022/04/21 11:55:45;;;;;;;8.77;7.00;;;16.50;99.90;;;;;;5032212;28;20033;-76
2022/04/21 11:58:11;;;;;;;7.32;6.20;;;16.80;99.90;;;;;;5033286;28;20479;-76
2022/04/21 12:08:50;;;;;;;7.10;6.40;;;16.10;99.90;;;;;;5034147;28;20044;-76
2022/04/21 12:11:18;;;;;;;6.93;6.10;;;16.40;99.90;;;;;;5033449;28;20029;-75
2022/04/21 12:13:46;;;;;;;6.75;5.97;;;16.80;99.90;;;;;;5032342;28;20399;-77
2022/04/21 12:16:45;;;;;;;5.25;4.75;;;16.40;99.90;;;;;;5033528;28;20063;-75
2022/04/21 12:19:11;;;;;;;5.40;4.90;;;16.10;99.90;;;;;;5032388;28;20022;-76
2022/04/21 12:21:37;;;;;;;5.63;5.00;;;15.50;99.90;;;;;;5031993;28;20040;-75
2022/04/21 12:24:17;;;;;;;9.80;6.72;;;15.90;99.90;;;;;;5032187;28;20075;-75
2022/04/21 12:27:04;;;;;;;6.43;5.70;;;16.20;99.90;;;;;;5033358;28;20113;-76
2022/04/21 12:29:31;;;;;;;6.60;5.88;;;15.50;99.90;;;;;;5032106;28;20036;-76
2022/04/21 12:32:01;;;;;;;6.07;5.50;;;15.40;99.90;;;;;;5033294;28;20352;-76
2022/04/21 12:34:29;;;;;;;6.85;5.80;;;15.50;99.90;;;;;;5033430;28;20395;-75
2022/04/21 12:36:57;;;;;;;7.30;6.00;;;15.60;99.90;;;;;;5033213;28;20022;-77
2022/04/21 12:39:23;;;;;;;5.10;4.60;;;15.90;99.90;;;;;;5033254;28;20053;-75
2022/04/21 12:41:51;;;;;;;7.55;5.57;;;16.60;99.90;;;;;;5033252;28;20407;-76
2022/04/21 12:44:18;;;;;;;5.63;5.10;;;16.60;99.90;;;;;;5032943;28;20084;-77
2022/04/21 12:47:03;;;;;;;6.70;4.72;;;16.80;99.90;;;;;;5033082;28;20490;-76
2022/04/21 12:49:55;;;;;;;5.80;5.30;;;16.40;99.90;;;;;;5032926;28;20024;-77
2022/04/21 12:52:49;;;;;;;8.15;6.18;;;16.30;99.90;;;;;;5051510;28;20021;-75
2022/04/21 12:55:18;;;;;;;5.55;5.03;;;16.50;99.90;;;;;;5050861;28;20045;-77
2022/04/21 12:58:01;;;;;;;5.18;4.68;;;16.50;99.90;;;;;;5035934;28;20033;-77
2022/04/21 13:00:28;;;;;;;6.97;5.28;;;16.50;99.90;;;;;;5032481;28;20086;-77
2022/04/21 13:02:53;;;;;;;6.03;5.43;;;15.80;99.90;;;;;;5044536;28;20463;-75
2022/04/21 13:05:19;;;;;;;7.63;5.93;;;15.50;99.90;;;;;;5034707;28;20028;-76
2022/04/21 13:07:44;;;;;;;5.57;4.90;;;15.50;99.90;;;;;;5030936;28;20476;-76
2022/04/21 13:10:10;;;;;;;6.20;5.60;;;15.20;99.90;;;;;;5032523;28;20033;-76
2022/04/21 13:12:35;;;;;;;7.38;5.70;;;15.30;99.90;;;;;;5032237;28;20437;-76
2022/04/21 13:15:04;;;;;;;7.75;5.78;;;15.40;99.90;;;;;;5032806;28;20029;-76
2022/04/21 13:17:30;;;;;;;7.32;5.55;;;15.30;99.90;;;;;;5033081;28;20545;-76
2022/04/21 13:19:56;;;;;;;6.82;5.47;;;15.20;99.90;;;;;;5031494;28;20029;-76
2022/04/21 13:22:22;;;;;;;5.60;4.75;;;15.00;99.90;;;;;;5032554;28;20112;-76
2022/04/21 13:24:47;;;;;;;5.43;4.93;;;15.30;99.90;;;;;;5032472;28;20035;-76
2022/04/21 13:27:16;;;;;;;7.85;5.35;;;15.60;99.90;;;;;;5032419;28;20563;-75
2022/04/21 13:29:42;;;;;;;6.40;5.57;;;15.70;99.90;;;;;;5030944;28;20029;-76
2022/04/21 13:34:52;;;;;;;5.60;5.10;;;14.90;99.90;;;;;;5032341;28;20546;-75
2022/04/21 13:37:17;;;;;;;5.40;4.90;;;15.40;99.90;;;;;;5030880;28;20017;-75
2022/04/21 13:39:43;;;;;;;6.38;4.50;;;15.10;99.90;;;;;;5032042;28;20101;-75
2022/04/21 13:42:09;;;;;;;6.10;4.80;;;15.20;99.90;;;;;;5030566;28;20030;-75
2022/04/21 13:44:35;;;;;;;7.28;4.50;;;15.30;99.90;;;;;;5031807;28;20033;-77
2022/04/21 13:47:00;;;;;;;5.75;5.03;;;15.10;99.90;;;;;;5030769;28;20053;-77
2022/04/21 13:49:26;;;;;;;8.00;5.00;;;14.90;99.90;;;;;;5030597;28;20022;-78